Terminal Aerodrome Forecast
Issued by NWS

Home | Current Version | Previous Version | Text Only | Print | Product List | Glossary On
Versions: 1 2 3 4 5 6 7 8 9 10 11 12 13 14 15 16 17 18 19 20 21 22 23 24 25 26
000
FTUS45 KVEF 202300
TAFLAS
TAF
KLAS 202320Z 2100/2124 18010G16KT P6SM FEW110 SCT250
     FM210300 21009KT P6SM SCT250
     FM211400 VRB05KT P6SM SCT250
     FM211600 19010KT P6SM SCT250
     FM211900 20013G23KT P6SM SCT250=

USA.gov is the U.S. government's official web portal to all federal, state and local government web resources and services.